Buoy 46612

sailwx.info

Track history (hours):
 
Tides and Currents Weather Stations Pressure Air Temp Water Temp Dewpoint Dewpoint Depression Visibility Wind Speed Wind Dir Waves Ship Positions

Drifting buoy 46612

Last reported at 2014-Oct-31 18:00 UTC. Time now 2014-Nov-01 06:14 UTC.
Position N 28°33' W 139°05'.

Water temperature 23.4 ° C

Date/timePositionNaut miles runAvg speedWind from/ knotsBaromVisibWave heightAir tempDewpointWater temp
2014-Oct-31 18:00N 28°33' W 139°05'1 0.4 23.4
2014-Oct-31 15:00N 28°33' W 139°06'0 0.0 23.4
2014-Oct-31 14:00N 28°33' W 139°06'1 0.3 23.4
2014-Oct-31 12:00N 28°32' W 139°06'0 0.4 23.4
2014-Oct-31 11:00N 28°32' W 139°05'0 0.1 23.4
2014-Oct-31 07:00N 28°32' W 139°05'0 0.2 23.4
2014-Oct-31 06:00N 28°32' W 139°05'0 0.0 23.4
2014-Oct-31 05:00N 28°32' W 139°05'0 0.0 23.5
2014-Oct-31 04:00N 28°32' W 139°05'0 0.2 23.5
2014-Oct-31 03:00N 28°31' W 139°05'0 0.1 23.5
2014-Oct-31 02:00N 28°31' W 139°05'0 0.3 23.5
2014-Oct-31 01:00N 28°31' W 139°05'0 0.0 23.5
2014-Oct-31 00:00N 28°31' W 139°05'0 0.4 23.5
2014-Oct-30 23:00N 28°31' W 139°04'0 0.1 23.5
2014-Oct-30 20:00N 28°31' W 139°04'1 0.6 23.5
2014-Oct-30 19:00N 28°32' W 139°04'1 0.4 23.5
2014-Oct-30 17:00N 28°32' W 139°03'1 0.8 23.5
2014-Oct-30 16:00N 28°31' W 139°04'1 0.4 23.5
2014-Oct-30 14:00N 28°32' W 139°05'0 0.1 23.5
2014-Oct-30 12:00N 28°31' W 139°05'0 0.2 23.5
2014-Oct-30 10:00N 28°31' W 139°05'1 0.4 23.5
2014-Oct-30 08:00N 28°30' W 139°05'0 0.0 23.6
2014-Oct-30 07:00N 28°30' W 139°05'0 0.3 23.6
2014-Oct-30 06:00N 28°30' W 139°05'0 0.2 23.6
2014-Oct-30 05:00N 28°30' W 139°05'0 0.2 23.6
2014-Oct-30 03:00N 28°30' W 139°06'0 0.2 23.6
2014-Oct-30 01:00N 28°30' W 139°05'0 0.4 23.7
2014-Oct-30 00:00N 28°30' W 139°05'1 0.7 23.8
2014-Oct-29 23:00N 28°30' W 139°05'0 0.0 23.7
2014-Oct-29 22:00N 28°30' W 139°05'0 0.0 23.7
2014-Oct-29 21:00N 28°30' W 139°05'1 0.4 23.6
2014-Oct-29 19:00N 28°30' W 139°06'0 0.0 23.5
2014-Oct-29 18:00N 28°30' W 139°06'0 0.0 23.5
2014-Oct-29 17:00N 28°30' W 139°06'0 0.0 23.5
2014-Oct-29 16:00N 28°30' W 139°06'1 0.4 23.5
2014-Oct-29 14:00N 28°29' W 139°07'2 0.2 23.5
2014-Oct-29 06:00N 28°27' W 139°06'1 0.8 23.5
2014-Oct-29 05:00N 28°27' W 139°06'0 0.1 23.5
2014-Oct-29 02:00N 28°27' W 139°05'1 0.9 23.5
2014-Oct-29 01:00N 28°26' W 139°06'1 0.8 23.5
2014-Oct-29 00:00N 28°27' W 139°05'0 0.2 23.6
2014-Oct-28 22:00N 28°27' W 139°05'1 0.5 23.6
2014-Oct-28 21:00N 28°27' W 139°05'0 0.0 23.6
2014-Oct-28 20:00N 28°27' W 139°05'1 0.3 23.6
2014-Oct-28 18:00N 28°27' W 139°06'1 0.2 23.6
2014-Oct-28 15:00N 28°27' W 139°06'0 0.5 23.5
2014-Oct-28 14:00N 28°26' W 139°06'0 0.1 23.5
2014-Oct-28 12:00N 28°26' W 139°06'1 0.3 23.5
2014-Oct-28 07:00N 28°25' W 139°06'0 0.2 23.6
2014-Oct-28 06:00N 28°25' W 139°06'1 0.3 23.6
2014-Oct-28 04:00N 28°25' W 139°06'0 0.2 23.6
2014-Oct-28 02:00N 28°25' W 139°05'1 0.6 23.7
2014-Oct-28 01:00N 28°25' W 139°06'1 0.6 23.7
2014-Oct-28 00:00N 28°24' W 139°05'0 0.4 23.7
2014-Oct-27 23:00N 28°24' W 139°06'1 1.1 23.7
2014-Oct-27 22:00N 28°24' W 139°05'1 0.1 23.7
2014-Oct-27 18:00N 28°25' W 139°05'0 0.1 23.5
2014-Oct-27 15:00N 28°25' W 139°06'1 0.1 23.5
2014-Oct-27 07:00N 28°23' W 139°06'1 0.4 23.6
2014-Oct-27 05:00N 28°23' W 139°05'0 0.4 23.6
2014-Oct-27 04:00N 28°23' W 139°05'0 0.2 23.6
2014-Oct-27 03:00N 28°22' W 139°05'1 0.6 23.6
2014-Oct-27 02:00N 28°22' W 139°05'0 0.2 23.7
2014-Oct-27 00:00N 28°22' W 139°05'0 0.0 23.7
2014-Oct-26 23:00N 28°22' W 139°05'0 0.1 23.7
2014-Oct-26 22:00N 28°22' W 139°05'1 0.2 23.7
2014-Oct-26 19:00N 28°23' W 139°04'0 0.1 23.7
2014-Oct-26 15:00N 28°22' W 139°04'0 0.4 23.6
2014-Oct-26 14:00N 28°23' W 139°05'0 0.0 23.6
2014-Oct-26 13:00N 28°23' W 139°05'1 0.7 23.6
2014-Oct-26 12:00N 28°22' W 139°05'0 0.0 23.6
2014-Oct-26 10:00N 28°22' W 139°05'1 0.7 23.7
2014-Oct-26 08:00N 28°21' W 139°05'0 0.2 23.7
2014-Oct-26 07:00N 28°21' W 139°05'1 0.9 23.7
2014-Oct-26 06:00N 28°20' W 139°04'0 0.0 23.7
2014-Oct-26 05:00N 28°20' W 139°04'0 0.1 23.7
2014-Oct-26 04:00N 28°20' W 139°04'1 0.8 23.7
2014-Oct-26 03:00N 28°21' W 139°03'1 0.9 23.7
2014-Oct-26 02:00N 28°20' W 139°04'0 0.5 23.7
2014-Oct-26 01:00N 28°20' W 139°03'1 0.7 23.7
2014-Oct-26 00:00N 28°20' W 139°03'0 0.1 23.8
2014-Oct-25 21:00N 28°21' W 139°03'0 0.1 23.7
2014-Oct-25 18:00N 28°20' W 139°03'0 0.0 23.7
2014-Oct-25 17:00N 28°20' W 139°03'0 0.1 23.7
2014-Oct-25 15:00N 28°20' W 139°03'0 0.0 23.7
2014-Oct-25 14:00N 28°20' W 139°03'0 0.4 23.7
2014-Oct-25 13:00N 28°20' W 139°03'0 0.0 23.7
2014-Oct-25 12:00N 28°20' W 139°03'0 0.0 23.7
2014-Oct-25 11:00N 28°20' W 139°03'2 0.8 23.7
2014-Oct-25 09:00N 28°20' W 139°02'1 0.3 23.7
2014-Oct-25 05:00N 28°19' W 139°03'1 0.6 23.8
2014-Oct-25 04:00N 28°19' W 139°02'0 0.2 23.8
2014-Oct-25 02:00N 28°19' W 139°02'1 1.1 23.8
2014-Oct-25 01:00N 28°19' W 139°01'0 0.0 23.9
2014-Oct-25 00:00N 28°19' W 139°01'0 0.1 23.9
2014-Oct-24 23:00N 28°19' W 139°01'1 1.0 23.9
2014-Oct-24 22:00N 28°19' W 139°02'0 0.1 23.9
2014-Oct-24 21:00N 28°19' W 139°02'1 0.7 23.9
2014-Oct-24 19:00N 28°20' W 139°01'0 0.1 23.8
2014-Oct-24 18:00N 28°20' W 139°01'0 0.0 23.8
2014-Oct-24 17:00N 28°20' W 139°01'0 0.1 23.8
2014-Oct-24 15:00N 28°20' W 139°01'0 0.3 23.9
2014-Oct-24 14:00N 28°20' W 139°01'0 0.1 23.9
2014-Oct-24 13:00N 28°20' W 139°01'0 0.1 23.9
2014-Oct-24 11:00N 28°20' W 139°01'0 0.0 23.9
2014-Oct-24 09:00N 28°20' W 139°01'0 0.1 23.9
2014-Oct-24 05:00N 28°20' W 139°01'1 0.3 23.9
2014-Oct-24 03:00N 28°20' W 139°00'2 0.8 24.0
2014-Oct-24 01:00N 28°20' W 139°02'0 0.0 24.1
2014-Oct-23 23:00N 28°20' W 139°02'0 0.4 24.1
2014-Oct-23 22:00N 28°20' W 139°02'1 0.1 24.0
2014-Oct-23 15:00N 28°19' W 139°03'0 0.1 23.9
2014-Oct-23 13:00N 28°19' W 139°03'1 0.6 23.9
2014-Oct-23 12:00N 28°19' W 139°03'1 0.6 23.9
2014-Oct-23 11:00N 28°18' W 139°03'1 0.2 24.0
2014-Oct-23 07:00N 28°18' W 139°02'0 0.0 24.0
2014-Oct-23 06:00N 28°18' W 139°02'0 0.4 24.1
2014-Oct-23 05:00N 28°18' W 139°02'2 0.4 24.1
2014-Oct-23 01:00N 28°18' W 139°01'1 0.3 24.3
2014-Oct-22 23:00N 28°18' W 139°01'0 0.0 24.4
2014-Oct-22 22:00N 28°18' W 139°01'1 0.4 24.3
2014-Oct-22 19:00N 28°18' W 139°03'0 0.0 24.0
2014-Oct-22 17:00N 28°18' W 139°03'0 0.1 23.9
2014-Oct-22 14:00N 28°18' W 139°03'1 0.7 23.9
2014-Oct-22 12:00N 28°17' W 139°02'0 0.1 23.9
2014-Oct-22 07:00N 28°16' W 139°02'1 0.4 24.0
2014-Oct-22 05:00N 28°16' W 139°01'0 0.4 24.0
2014-Oct-22 04:00N 28°16' W 139°00'1 0.7 24.0
2014-Oct-22 03:00N 28°17' W 139°01'1 0.3 24.0
2014-Oct-22 01:00N 28°17' W 139°00'0 0.4 24.1
2014-Oct-22 00:00N 28°17' W 139°00'1 0.2 24.1
2014-Oct-21 19:00N 28°16' W 139°01'   24.0
Track history (hours):
 
Tides and Currents Weather Stations Pressure Air Temp Water Temp Dewpoint Dewpoint Depression Visibility Wind Speed Wind Dir Waves Ship Positions

Drifting buoy 46612

Last reported at 2014-Oct-31 18:00 UTC. Time now 2014-Nov-01 06:14 UTC.
Position N 28°33' W 139°05'.

Water temperature 23.4 ° C

Date/timePositionNaut miles runAvg speedWind from/ knotsBaromVisibWave heightAir tempDewpointWater temp
2014-Oct-31 18:00N 28°33' W 139°05'1 0.4 23.4
2014-Oct-31 15:00N 28°33' W 139°06'0 0.0 23.4
2014-Oct-31 14:00N 28°33' W 139°06'1 0.3 23.4
2014-Oct-31 12:00N 28°32' W 139°06'0 0.4 23.4
2014-Oct-31 11:00N 28°32' W 139°05'0 0.1 23.4
2014-Oct-31 07:00N 28°32' W 139°05'0 0.2 23.4
2014-Oct-31 06:00N 28°32' W 139°05'0 0.0 23.4
2014-Oct-31 05:00N 28°32' W 139°05'0 0.0 23.5
2014-Oct-31 04:00N 28°32' W 139°05'0 0.2 23.5
2014-Oct-31 03:00N 28°31' W 139°05'0 0.1 23.5
2014-Oct-31 02:00N 28°31' W 139°05'0 0.3 23.5
2014-Oct-31 01:00N 28°31' W 139°05'0 0.0 23.5
2014-Oct-31 00:00N 28°31' W 139°05'0 0.4 23.5
2014-Oct-30 23:00N 28°31' W 139°04'0 0.1 23.5
2014-Oct-30 20:00N 28°31' W 139°04'1 0.6 23.5
2014-Oct-30 19:00N 28°32' W 139°04'1 0.4 23.5
2014-Oct-30 17:00N 28°32' W 139°03'1 0.8 23.5
2014-Oct-30 16:00N 28°31' W 139°04'1 0.4 23.5
2014-Oct-30 14:00N 28°32' W 139°05'0 0.1 23.5
2014-Oct-30 12:00N 28°31' W 139°05'0 0.2 23.5
2014-Oct-30 10:00N 28°31' W 139°05'1 0.4 23.5
2014-Oct-30 08:00N 28°30' W 139°05'0 0.0 23.6
2014-Oct-30 07:00N 28°30' W 139°05'0 0.3 23.6
2014-Oct-30 06:00N 28°30' W 139°05'0 0.2 23.6
2014-Oct-30 05:00N 28°30' W 139°05'0 0.2 23.6
2014-Oct-30 03:00N 28°30' W 139°06'0 0.2 23.6
2014-Oct-30 01:00N 28°30' W 139°05'0 0.4 23.7
2014-Oct-30 00:00N 28°30' W 139°05'1 0.7 23.8
2014-Oct-29 23:00N 28°30' W 139°05'0 0.0 23.7
2014-Oct-29 22:00N 28°30' W 139°05'0 0.0 23.7
2014-Oct-29 21:00N 28°30' W 139°05'1 0.4 23.6
2014-Oct-29 19:00N 28°30' W 139°06'0 0.0 23.5
2014-Oct-29 18:00N 28°30' W 139°06'0 0.0 23.5
2014-Oct-29 17:00N 28°30' W 139°06'0 0.0 23.5
2014-Oct-29 16:00N 28°30' W 139°06'1 0.4 23.5
2014-Oct-29 14:00N 28°29' W 139°07'2 0.2 23.5
2014-Oct-29 06:00N 28°27' W 139°06'1 0.8 23.5
2014-Oct-29 05:00N 28°27' W 139°06'0 0.1 23.5
2014-Oct-29 02:00N 28°27' W 139°05'1 0.9 23.5
2014-Oct-29 01:00N 28°26' W 139°06'1 0.8 23.5
2014-Oct-29 00:00N 28°27' W 139°05'0 0.2 23.6
2014-Oct-28 22:00N 28°27' W 139°05'1 0.5 23.6
2014-Oct-28 21:00N 28°27' W 139°05'0 0.0 23.6
2014-Oct-28 20:00N 28°27' W 139°05'1 0.3 23.6
2014-Oct-28 18:00N 28°27' W 139°06'1 0.2 23.6
2014-Oct-28 15:00N 28°27' W 139°06'0 0.5 23.5
2014-Oct-28 14:00N 28°26' W 139°06'0 0.1 23.5
2014-Oct-28 12:00N 28°26' W 139°06'1 0.3 23.5
2014-Oct-28 07:00N 28°25' W 139°06'0 0.2 23.6
2014-Oct-28 06:00N 28°25' W 139°06'1 0.3 23.6
2014-Oct-28 04:00N 28°25' W 139°06'0 0.2 23.6
2014-Oct-28 02:00N 28°25' W 139°05'1 0.6 23.7
2014-Oct-28 01:00N 28°25' W 139°06'1 0.6 23.7
2014-Oct-28 00:00N 28°24' W 139°05'0 0.4 23.7
2014-Oct-27 23:00N 28°24' W 139°06'1 1.1 23.7
2014-Oct-27 22:00N 28°24' W 139°05'1 0.1 23.7
2014-Oct-27 18:00N 28°25' W 139°05'0 0.1 23.5
2014-Oct-27 15:00N 28°25' W 139°06'1 0.1 23.5
2014-Oct-27 07:00N 28°23' W 139°06'1 0.4 23.6
2014-Oct-27 05:00N 28°23' W 139°05'0 0.4 23.6
2014-Oct-27 04:00N 28°23' W 139°05'0 0.2 23.6
2014-Oct-27 03:00N 28°22' W 139°05'1 0.6 23.6
2014-Oct-27 02:00N 28°22' W 139°05'0 0.2 23.7
2014-Oct-27 00:00N 28°22' W 139°05'0 0.0 23.7
2014-Oct-26 23:00N 28°22' W 139°05'0 0.1 23.7
2014-Oct-26 22:00N 28°22' W 139°05'1 0.2 23.7
2014-Oct-26 19:00N 28°23' W 139°04'0 0.1 23.7
2014-Oct-26 15:00N 28°22' W 139°04'0 0.4 23.6
2014-Oct-26 14:00N 28°23' W 139°05'0 0.0 23.6
2014-Oct-26 13:00N 28°23' W 139°05'1 0.7 23.6
2014-Oct-26 12:00N 28°22' W 139°05'0 0.0 23.6
2014-Oct-26 10:00N 28°22' W 139°05'1 0.7 23.7
2014-Oct-26 08:00N 28°21' W 139°05'0 0.2 23.7
2014-Oct-26 07:00N 28°21' W 139°05'1 0.9 23.7
2014-Oct-26 06:00N 28°20' W 139°04'0 0.0 23.7
2014-Oct-26 05:00N 28°20' W 139°04'0 0.1 23.7
2014-Oct-26 04:00N 28°20' W 139°04'1 0.8 23.7
2014-Oct-26 03:00N 28°21' W 139°03'1 0.9 23.7
2014-Oct-26 02:00N 28°20' W 139°04'0 0.5 23.7
2014-Oct-26 01:00N 28°20' W 139°03'1 0.7 23.7
2014-Oct-26 00:00N 28°20' W 139°03'0 0.1 23.8
2014-Oct-25 21:00N 28°21' W 139°03'0 0.1 23.7
2014-Oct-25 18:00N 28°20' W 139°03'0 0.0 23.7
2014-Oct-25 17:00N 28°20' W 139°03'0 0.1 23.7
2014-Oct-25 15:00N 28°20' W 139°03'0 0.0 23.7
2014-Oct-25 14:00N 28°20' W 139°03'0 0.4 23.7
2014-Oct-25 13:00N 28°20' W 139°03'0 0.0 23.7
2014-Oct-25 12:00N 28°20' W 139°03'0 0.0 23.7
2014-Oct-25 11:00N 28°20' W 139°03'2 0.8 23.7
2014-Oct-25 09:00N 28°20' W 139°02'1 0.3 23.7
2014-Oct-25 05:00N 28°19' W 139°03'1 0.6 23.8
2014-Oct-25 04:00N 28°19' W 139°02'0 0.2 23.8
2014-Oct-25 02:00N 28°19' W 139°02'1 1.1 23.8
2014-Oct-25 01:00N 28°19' W 139°01'0 0.0 23.9
2014-Oct-25 00:00N 28°19' W 139°01'0 0.1 23.9
2014-Oct-24 23:00N 28°19' W 139°01'1 1.0 23.9
2014-Oct-24 22:00N 28°19' W 139°02'0 0.1 23.9
2014-Oct-24 21:00N 28°19' W 139°02'1 0.7 23.9
2014-Oct-24 19:00N 28°20' W 139°01'0 0.1 23.8
2014-Oct-24 18:00N 28°20' W 139°01'0 0.0 23.8
2014-Oct-24 17:00N 28°20' W 139°01'0 0.1 23.8
2014-Oct-24 15:00N 28°20' W 139°01'0 0.3 23.9
2014-Oct-24 14:00N 28°20' W 139°01'0 0.1 23.9
2014-Oct-24 13:00N 28°20' W 139°01'0 0.1 23.9
2014-Oct-24 11:00N 28°20' W 139°01'0 0.0 23.9
2014-Oct-24 09:00N 28°20' W 139°01'0 0.1 23.9
2014-Oct-24 05:00N 28°20' W 139°01'1 0.3 23.9
2014-Oct-24 03:00N 28°20' W 139°00'2 0.8 24.0
2014-Oct-24 01:00N 28°20' W 139°02'0 0.0 24.1
2014-Oct-23 23:00N 28°20' W 139°02'0 0.4 24.1
2014-Oct-23 22:00N 28°20' W 139°02'1 0.1 24.0
2014-Oct-23 15:00N 28°19' W 139°03'0 0.1 23.9
2014-Oct-23 13:00N 28°19' W 139°03'1 0.6 23.9
2014-Oct-23 12:00N 28°19' W 139°03'1 0.6 23.9
2014-Oct-23 11:00N 28°18' W 139°03'1 0.2 24.0
2014-Oct-23 07:00N 28°18' W 139°02'0 0.0 24.0
2014-Oct-23 06:00N 28°18' W 139°02'0 0.4 24.1
2014-Oct-23 05:00N 28°18' W 139°02'2 0.4 24.1
2014-Oct-23 01:00N 28°18' W 139°01'1 0.3 24.3
2014-Oct-22 23:00N 28°18' W 139°01'0 0.0 24.4
2014-Oct-22 22:00N 28°18' W 139°01'1 0.4 24.3
2014-Oct-22 19:00N 28°18' W 139°03'0 0.0 24.0
2014-Oct-22 17:00N 28°18' W 139°03'0 0.1 23.9
2014-Oct-22 14:00N 28°18' W 139°03'1 0.7 23.9
2014-Oct-22 12:00N 28°17' W 139°02'0 0.1 23.9
2014-Oct-22 07:00N 28°16' W 139°02'1 0.4 24.0
2014-Oct-22 05:00N 28°16' W 139°01'0 0.4 24.0
2014-Oct-22 04:00N 28°16' W 139°00'1 0.7 24.0
2014-Oct-22 03:00N 28°17' W 139°01'1 0.3 24.0
2014-Oct-22 01:00N 28°17' W 139°00'0 0.4 24.1
2014-Oct-22 00:00N 28°17' W 139°00'1 0.2 24.1
2014-Oct-21 19:00N 28°16' W 139°01'   24.0

Dump ship's entire track history